createdAt,value
2022-09-28T00:02:16.196Z,11.27
2022-09-28T00:04:44.721Z,11.25
2022-09-28T00:07:13.102Z,11.25
2022-09-28T00:09:41.692Z,11.24
2022-09-28T00:12:11.383Z,11.23
2022-09-28T00:14:42.055Z,11.21
2022-09-28T00:17:11.816Z,11.19
2022-09-28T00:19:40.338Z,11.17
2022-09-28T00:22:08.899Z,11.12
2022-09-28T00:24:37.721Z,11.08
2022-09-28T00:27:06.282Z,11.04
2022-09-28T00:29:36.464Z,10.98
2022-09-28T00:32:09.426Z,10.93
2022-09-28T00:34:49.064Z,10.88
2022-09-28T00:37:23.704Z,10.86
2022-09-28T00:40:01.238Z,10.84
2022-09-28T00:42:31.812Z,10.81
2022-09-28T00:45:06.012Z,10.79
2022-09-28T00:47:51.099Z,10.78
2022-09-28T00:50:28.822Z,10.75
2022-09-28T00:53:07.389Z,10.71
2022-09-28T00:55:43.427Z,10.70
2022-09-28T00:58:21.440Z,10.69
2022-09-28T01:00:54.069Z,10.66
2022-09-28T01:03:29.736Z,10.63
2022-09-28T01:06:08.226Z,10.60
2022-09-28T01:08:39.859Z,10.59
2022-09-28T01:11:08.486Z,10.57
2022-09-28T01:13:37.576Z,10.58
2022-09-28T01:16:12.842Z,10.57
2022-09-28T01:18:53.243Z,10.57
2022-09-28T01:21:24.806Z,10.56
2022-09-28T01:24:16.912Z,10.56
2022-09-28T01:26:52.582Z,10.53
2022-09-28T01:29:32.958Z,10.52
2022-09-28T01:32:10.471Z,10.50
2022-09-28T01:34:43.740Z,10.49
2022-09-28T01:37:14.754Z,10.48
2022-09-28T01:39:48.688Z,10.48
2022-09-28T01:42:22.144Z,10.47
2022-09-28T01:44:54.738Z,10.46
2022-09-28T01:47:26.630Z,10.48
2022-09-28T01:50:00.820Z,10.47
2022-09-28T01:52:31.684Z,10.45
2022-09-28T01:55:07.329Z,10.45
2022-09-28T01:57:42.330Z,10.44
2022-09-28T02:00:16.235Z,10.44
2022-09-28T02:02:48.502Z,10.44
2022-09-28T02:05:23.724Z,10.43
2022-09-28T02:07:59.236Z,10.43
2022-09-28T02:10:33.875Z,10.44
2022-09-28T02:13:05.120Z,10.43
2022-09-28T02:15:42.170Z,10.41
2022-09-28T02:18:11.082Z,10.42
2022-09-28T02:20:42.550Z,10.43
2022-09-28T02:23:11.129Z,10.43
2022-09-28T02:25:45.219Z,10.43
2022-09-28T02:28:14.964Z,10.44
2022-09-28T02:30:45.328Z,10.44
2022-09-28T02:33:18.638Z,10.42
2022-09-28T02:35:49.475Z,10.44
2022-09-28T02:38:19.418Z,10.43
2022-09-28T02:40:57.933Z,10.44
2022-09-28T02:43:38.210Z,10.45
2022-09-28T02:46:16.154Z,10.46
2022-09-28T02:49:20.331Z,10.46
2022-09-28T02:52:08.237Z,10.48
2022-09-28T02:54:58.011Z,10.48
2022-09-28T02:57:37.380Z,10.49
2022-09-28T03:00:11.495Z,10.49
2022-09-28T03:02:50.174Z,10.49
2022-09-28T03:05:21.981Z,10.50
2022-09-28T03:07:57.585Z,10.51
2022-09-28T03:10:35.262Z,10.49
2022-09-28T03:13:05.522Z,10.50
2022-09-28T03:15:36.128Z,10.49
2022-09-28T03:18:05.796Z,10.49
2022-09-28T03:20:34.735Z,10.48
2022-09-28T03:23:24.927Z,10.47
2022-09-28T03:25:54.221Z,10.44
2022-09-28T03:28:23.475Z,10.45
2022-09-28T03:30:52.374Z,10.44
2022-09-28T03:33:26.844Z,10.45
2022-09-28T03:35:55.452Z,10.45
2022-09-28T03:38:24.960Z,10.45
2022-09-28T03:40:59.334Z,10.44
2022-09-28T03:43:29.828Z,10.43
2022-09-28T03:46:01.723Z,10.41
2022-09-28T03:48:37.120Z,10.40
2022-09-28T03:51:09.546Z,10.38
2022-09-28T03:53:40.096Z,10.34
2022-09-28T03:56:12.585Z,10.32
2022-09-28T03:58:41.454Z,10.31
2022-09-28T04:01:16.914Z,10.27
2022-09-28T04:03:47.578Z,10.26
2022-09-28T04:06:16.449Z,10.24
2022-09-28T04:08:45.059Z,10.21
2022-09-28T04:11:13.654Z,10.20
2022-09-28T04:13:42.771Z,10.18
2022-09-28T04:16:15.664Z,10.16
2022-09-28T04:18:48.357Z,10.13
2022-09-28T04:21:38.118Z,10.09
2022-09-28T04:24:11.833Z,10.09
2022-09-28T04:26:40.480Z,10.08
2022-09-28T04:29:16.784Z,10.04
2022-09-28T04:31:57.509Z,10.03
2022-09-28T04:34:51.292Z,10.01
2022-09-28T04:37:19.746Z,10.01
2022-09-28T04:39:48.718Z,10.01
2022-09-28T04:42:20.306Z,10.01
2022-09-28T04:44:50.949Z,9.99
2022-09-28T04:47:19.439Z,9.99
2022-09-28T04:49:53.822Z,9.97
2022-09-28T04:52:28.259Z,9.95
2022-09-28T04:54:56.802Z,9.93
2022-09-28T04:57:27.430Z,9.91
2022-09-28T04:59:56.395Z,9.88
2022-09-28T05:02:24.883Z,9.88
2022-09-28T05:04:54.818Z,9.85
2022-09-28T05:07:42.065Z,9.83
2022-09-28T05:10:10.982Z,9.81
2022-09-28T05:12:41.265Z,9.81
2022-09-28T05:15:11.713Z,9.79
2022-09-28T05:17:40.297Z,9.78
2022-09-28T05:20:21.974Z,9.77
2022-09-28T05:22:50.447Z,9.73
2022-09-28T05:25:19.475Z,9.71
2022-09-28T05:28:09.217Z,9.70
2022-09-28T05:31:09.697Z,9.68
2022-09-28T05:33:53.231Z,9.68
2022-09-28T05:36:21.875Z,9.65
2022-09-28T05:38:51.241Z,9.65
2022-09-28T05:41:20.445Z,9.64
2022-09-28T05:43:51.109Z,9.65
2022-09-28T05:46:23.346Z,9.70
2022-09-28T05:48:53.706Z,9.74
2022-09-28T05:51:24.890Z,9.74
2022-09-28T05:53:55.929Z,9.73
2022-09-28T05:56:29.517Z,9.71
2022-09-28T05:58:58.869Z,9.70
2022-09-28T06:01:31.050Z,9.67
2022-09-28T06:04:03.057Z,9.65
2022-09-28T06:06:36.117Z,9.66
2022-09-28T06:09:07.359Z,9.67
2022-09-28T06:12:00.548Z,9.68
2022-09-28T06:14:49.587Z,9.66
2022-09-28T06:17:18.412Z,9.65
2022-09-28T06:19:53.068Z,9.65
2022-09-28T06:22:27.866Z,9.65
2022-09-28T06:25:02.562Z,9.67
2022-09-28T06:27:31.575Z,9.70
2022-09-28T06:30:03.394Z,9.77
2022-09-28T06:32:32.223Z,9.82
2022-09-28T06:35:02.033Z,9.86
2022-09-28T06:37:32.553Z,9.94
2022-09-28T06:40:03.145Z,10.04
2022-09-28T06:42:32.748Z,10.11
2022-09-28T06:45:24.049Z,10.16
2022-09-28T06:48:24.871Z,10.23
2022-09-28T06:50:54.059Z,10.25
2022-09-28T06:53:29.181Z,10.25
2022-09-28T06:56:02.289Z,10.27
2022-09-28T06:58:31.871Z,10.30
2022-09-28T07:01:01.671Z,10.39
2022-09-28T07:03:35.355Z,10.51
2022-09-28T07:06:25.688Z,10.62
2022-09-28T07:09:31.411Z,10.73
2022-09-28T07:12:14.166Z,10.91
2022-09-28T07:14:56.001Z,11.02
2022-09-28T07:17:25.982Z,11.06
2022-09-28T07:19:59.047Z,11.13
2022-09-28T07:22:41.526Z,11.17
2022-09-28T07:25:14.469Z,11.18
2022-09-28T07:28:22.045Z,11.29
2022-09-28T07:31:11.457Z,11.27
2022-09-28T07:33:55.711Z,11.22
2022-09-28T07:36:34.923Z,11.17
2022-09-28T07:39:05.132Z,11.27
2022-09-28T07:41:35.712Z,11.46
2022-09-28T07:44:08.455Z,11.56
2022-09-28T07:46:38.819Z,11.68
2022-09-28T07:49:14.983Z,11.74
2022-09-28T07:52:10.275Z,11.71
2022-09-28T07:54:51.633Z,11.71
2022-09-28T07:57:39.466Z,11.66
2022-09-28T08:00:22.292Z,11.65
2022-09-28T08:02:51.082Z,11.63
2022-09-28T08:05:24.058Z,11.65
2022-09-28T08:07:52.891Z,11.67
2022-09-28T08:10:22.078Z,11.69
2022-09-28T08:13:08.807Z,11.74
2022-09-28T08:16:13.724Z,11.83
2022-09-28T08:18:50.701Z,11.87
2022-09-28T08:21:38.731Z,11.99
2022-09-28T08:24:09.882Z,12.18
2022-09-28T08:26:38.797Z,12.31
2022-09-28T08:29:10.152Z,12.42
2022-09-28T08:31:50.969Z,12.60
2022-09-28T08:34:41.342Z,12.83
2022-09-28T08:37:39.303Z,13.07
2022-09-28T08:40:28.454Z,13.25
2022-09-28T08:43:24.383Z,13.39
2022-09-28T08:46:29.041Z,13.40
2022-09-28T08:49:30.571Z,13.41
2022-09-28T08:52:22.931Z,13.64
2022-09-28T08:55:02.489Z,13.82
2022-09-28T08:57:48.114Z,13.87
2022-09-28T09:00:21.799Z,14.18
2022-09-28T09:02:50.549Z,14.82
2022-09-28T09:05:28.724Z,16.47
2022-09-28T09:08:14.620Z,17.31
2022-09-28T09:10:51.003Z,17.38
2022-09-28T09:13:55.526Z,16.93
2022-09-28T09:16:40.166Z,18.15
2022-09-28T09:19:41.416Z,19.31
2022-09-28T09:22:36.626Z,20.03
2022-09-28T09:25:15.019Z,20.53
2022-09-28T09:27:57.694Z,20.46
2022-09-28T09:30:31.906Z,20.16
2022-09-28T09:33:16.510Z,19.98
2022-09-28T09:36:18.916Z,19.22
2022-09-28T09:39:24.749Z,18.57
2022-09-28T09:42:17.319Z,18.14
2022-09-28T09:45:20.015Z,17.80
2022-09-28T09:48:15.001Z,17.54
2022-09-28T09:50:51.145Z,17.35
2022-09-28T09:53:28.341Z,17.45
2022-09-28T09:56:03.080Z,17.11
2022-09-28T09:58:51.743Z,16.77
2022-09-28T10:01:40.337Z,16.66
2022-09-28T10:04:46.861Z,16.71
2022-09-28T10:07:25.712Z,16.45
2022-09-28T10:10:02.999Z,16.26
2022-09-28T10:12:55.572Z,16.08
2022-09-28T10:15:27.658Z,15.94
2022-09-28T10:18:27.391Z,15.76
2022-09-28T10:21:14.331Z,15.69
2022-09-28T10:23:56.887Z,15.91
2022-09-28T10:26:35.125Z,16.31
2022-09-28T10:29:12.016Z,16.38
2022-09-28T10:31:43.959Z,16.31
2022-09-28T10:34:29.989Z,16.36
2022-09-28T10:37:07.447Z,16.75
2022-09-28T10:39:58.080Z,16.85
2022-09-28T10:42:37.455Z,16.73
2022-09-28T10:45:22.002Z,16.52
2022-09-28T10:47:51.144Z,16.24
2022-09-28T10:50:29.333Z,15.98
2022-09-28T10:53:19.550Z,15.71
2022-09-28T10:56:28.745Z,15.49
2022-09-28T10:59:24.056Z,15.28
2022-09-28T11:01:58.022Z,15.24
2022-09-28T11:04:35.909Z,15.27
2022-09-28T11:07:15.333Z,15.69
2022-09-28T11:09:51.095Z,16.06
2022-09-28T11:12:25.662Z,16.27
2022-09-28T11:15:02.627Z,16.08
2022-09-28T11:17:38.110Z,15.87
2022-09-28T11:20:35.105Z,15.70
2022-09-28T11:23:22.132Z,15.52
2022-09-28T11:26:07.598Z,15.37
2022-09-28T11:28:38.924Z,15.17
2022-09-28T11:31:15.901Z,15.03
2022-09-28T11:34:07.569Z,14.86
2022-09-28T11:37:15.356Z,14.65
2022-09-28T11:39:54.282Z,14.55
2022-09-28T11:42:33.323Z,14.59
2022-09-28T11:45:18.316Z,15.01
2022-09-28T11:47:54.047Z,15.22
2022-09-28T11:50:31.018Z,15.16
2022-09-28T11:53:20.241Z,15.14
2022-09-28T11:55:56.602Z,15.33
2022-09-28T11:58:30.885Z,15.37
2022-09-28T12:01:07.971Z,15.36
2022-09-28T12:04:02.509Z,15.34
2022-09-28T12:06:37.504Z,15.35
2022-09-28T12:09:19.500Z,15.23
2022-09-28T12:12:24.212Z,15.20
2022-09-28T12:14:59.755Z,15.34
2022-09-28T12:17:32.459Z,15.41
2022-09-28T12:20:12.343Z,15.46
2022-09-28T12:22:47.196Z,15.57
2022-09-28T12:25:21.065Z,15.55
2022-09-28T12:27:56.330Z,15.50
2022-09-28T12:30:33.558Z,15.43
2022-09-28T12:33:08.771Z,15.26
2022-09-28T12:35:48.543Z,15.17
2022-09-28T12:38:37.828Z,15.08
2022-09-28T12:41:19.290Z,15.01
2022-09-28T12:44:08.656Z,14.89
2022-09-28T12:46:54.044Z,14.78
2022-09-28T12:50:27.292Z,14.70
2022-09-28T12:55:43.677Z,14.71
2022-09-28T12:58:28.958Z,14.74
2022-09-28T13:01:13.228Z,14.74
2022-09-28T13:04:05.085Z,14.66
2022-09-28T13:06:48.723Z,14.60
2022-09-28T13:09:23.371Z,14.67
2022-09-28T13:12:18.754Z,14.83
2022-09-28T13:15:24.418Z,15.02
2022-09-28T13:18:07.434Z,15.05
2022-09-28T13:20:54.242Z,15.07
2022-09-28T13:23:26.214Z,15.07
2022-09-28T13:26:00.444Z,15.08
2022-09-28T13:28:31.226Z,15.12
2022-09-28T13:31:02.792Z,15.11
2022-09-28T13:33:36.112Z,15.08
2022-09-28T13:36:25.998Z,15.06
2022-09-28T13:38:58.894Z,15.01
2022-09-28T13:41:31.294Z,14.98
2022-09-28T13:44:24.190Z,14.93
2022-09-28T13:47:08.111Z,14.91
2022-09-28T13:49:50.199Z,14.83
2022-09-28T13:52:34.346Z,14.72
2022-09-28T13:55:24.488Z,14.68
2022-09-28T13:58:00.938Z,14.61
2022-09-28T14:00:36.265Z,14.51
2022-09-28T14:03:23.015Z,14.45
2022-09-28T14:06:12.082Z,14.40
2022-09-28T14:09:04.892Z,14.35
2022-09-28T14:11:54.077Z,14.33
2022-09-28T14:14:29.057Z,14.31
2022-09-28T14:17:50.626Z,14.24
2022-09-28T14:20:26.210Z,14.19
2022-09-28T14:23:25.213Z,14.15
2022-09-28T14:26:07.536Z,14.11
2022-09-28T14:28:49.579Z,14.09
2022-09-28T14:31:27.537Z,14.10
2022-09-28T14:33:59.490Z,14.13
2022-09-28T14:36:55.422Z,14.18
2022-09-28T14:39:49.102Z,14.27
2022-09-28T14:42:23.256Z,14.23
2022-09-28T14:45:37.978Z,14.17
2022-09-28T14:48:37.933Z,14.05
2022-09-28T14:52:20.205Z,13.97
2022-09-28T14:55:00.592Z,13.88
2022-09-28T14:57:33.199Z,13.85
2022-09-28T15:00:24.382Z,13.81
2022-09-28T15:03:08.916Z,13.75
2022-09-28T15:05:47.229Z,13.70
2022-09-28T15:08:22.330Z,13.65
2022-09-28T15:10:52.890Z,13.61
2022-09-28T15:13:25.714Z,13.57
2022-09-28T15:16:03.212Z,13.55
2022-09-28T15:19:09.885Z,13.52
2022-09-28T15:21:40.878Z,13.48
2022-09-28T15:24:31.822Z,13.46
2022-09-28T15:27:02.102Z,13.43
2022-09-28T15:29:32.945Z,13.41
2022-09-28T15:32:03.488Z,13.37
2022-09-28T15:34:54.507Z,13.31
2022-09-28T15:37:29.091Z,13.27
2022-09-28T15:40:00.779Z,13.21
2022-09-28T15:42:36.703Z,13.18
2022-09-28T15:45:25.169Z,13.12
2022-09-28T15:47:58.606Z,13.08
2022-09-28T15:50:36.371Z,13.02
2022-09-28T15:53:06.529Z,12.98
2022-09-28T15:55:42.427Z,12.93
2022-09-28T15:58:18.723Z,12.90
2022-09-28T16:00:49.546Z,12.86
2022-09-28T16:03:28.489Z,12.83
2022-09-28T16:06:10.714Z,12.79
2022-09-28T16:08:42.272Z,12.74
2022-09-28T16:11:16.860Z,12.70
2022-09-28T16:14:05.651Z,12.66
2022-09-28T16:16:38.054Z,12.60
2022-09-28T16:19:06.993Z,12.53
2022-09-28T16:21:45.766Z,12.45
2022-09-28T16:24:23.295Z,12.38
2022-09-28T16:26:59.523Z,12.30
2022-09-28T16:29:35.272Z,12.29
2022-09-28T16:32:37.188Z,12.26
2022-09-28T16:35:21.156Z,12.21
2022-09-28T16:37:57.333Z,12.15
2022-09-28T16:40:30.454Z,12.10
2022-09-28T16:43:04.385Z,12.04
2022-09-28T16:45:36.078Z,12.00
2022-09-28T16:48:25.055Z,11.97
2022-09-28T16:50:54.187Z,11.94
2022-09-28T16:53:38.501Z,11.92
2022-09-28T16:56:12.174Z,11.90
2022-09-28T16:58:48.761Z,11.90
2022-09-28T17:01:17.435Z,11.88
2022-09-28T17:03:48.053Z,11.82
2022-09-28T17:06:20.866Z,11.80
2022-09-28T17:08:51.181Z,11.80
2022-09-28T17:11:24.438Z,11.79
2022-09-28T17:13:58.749Z,11.77
2022-09-28T17:19:24.624Z,11.71
2022-09-28T17:21:53.470Z,11.68
2022-09-28T17:24:22.311Z,11.67
2022-09-28T17:26:53.032Z,11.65
2022-09-28T17:29:23.363Z,11.65
2022-09-28T17:31:54.808Z,11.64
2022-09-28T17:34:29.540Z,11.65
2022-09-28T17:37:01.111Z,11.63
2022-09-28T17:39:31.322Z,11.59
2022-09-28T17:42:00.000Z,11.58
2022-09-28T17:44:28.892Z,11.55
2022-09-28T17:46:58.907Z,11.54
2022-09-28T17:49:29.166Z,11.50
2022-09-28T17:52:00.328Z,11.46
2022-09-28T17:54:29.327Z,11.43
2022-09-28T17:56:58.909Z,11.43
2022-09-28T17:59:28.393Z,11.39
2022-09-28T18:02:02.376Z,11.35
2022-09-28T18:04:51.297Z,11.28
2022-09-28T18:07:33.826Z,11.23
2022-09-28T18:10:12.507Z,11.18
2022-09-28T18:12:44.872Z,11.16
2022-09-28T18:15:18.373Z,11.15
2022-09-28T18:17:47.990Z,11.13
2022-09-28T18:20:17.934Z,11.10
2022-09-28T18:22:47.288Z,11.08
2022-09-28T18:25:19.871Z,11.02
2022-09-28T18:27:49.119Z,10.97
2022-09-28T18:30:21.197Z,10.91
2022-09-28T18:32:55.252Z,10.87
2022-09-28T18:35:24.925Z,10.84
2022-09-28T18:37:54.838Z,10.79
2022-09-28T18:40:24.155Z,10.72
2022-09-28T18:42:54.981Z,10.62
2022-09-28T18:45:26.432Z,10.52
2022-09-28T18:47:55.479Z,10.45
2022-09-28T18:50:25.889Z,10.38
2022-09-28T18:53:10.881Z,10.30
2022-09-28T18:55:42.365Z,10.20
2022-09-28T18:58:15.860Z,10.14
2022-09-28T19:00:45.104Z,10.09
2022-09-28T19:03:14.985Z,10.05
2022-09-28T19:05:44.727Z,10.02
2022-09-28T19:08:13.556Z,9.98
2022-09-28T19:10:44.210Z,9.95
2022-09-28T19:13:17.573Z,9.92
2022-09-28T19:15:49.679Z,9.90
2022-09-28T19:18:19.092Z,9.88
2022-09-28T19:20:48.023Z,9.86
2022-09-28T19:23:19.605Z,9.85
2022-09-28T19:25:48.300Z,9.82
2022-09-28T19:28:18.647Z,9.78
2022-09-28T19:30:56.767Z,9.74
2022-09-28T19:33:25.908Z,9.73
2022-09-28T19:36:00.611Z,9.73
2022-09-28T19:38:35.065Z,9.73
2022-09-28T19:41:10.647Z,9.73
2022-09-28T19:43:41.867Z,9.72
2022-09-28T19:46:12.653Z,9.68
2022-09-28T19:48:41.927Z,9.67
2022-09-28T19:51:11.526Z,9.63
2022-09-28T19:53:40.610Z,9.60
2022-09-28T19:56:10.671Z,9.57
2022-09-28T19:58:40.206Z,9.57
2022-09-28T20:01:10.158Z,9.57
2022-09-28T20:03:39.160Z,9.56
2022-09-28T20:06:16.436Z,9.54
2022-09-28T20:08:46.458Z,9.53
2022-09-28T20:11:15.234Z,9.51
2022-09-28T20:13:43.910Z,9.48
2022-09-28T20:16:14.702Z,9.43
2022-09-28T20:18:50.100Z,9.40
2022-09-28T20:21:25.170Z,9.36
2022-09-28T20:23:56.839Z,9.31
2022-09-28T20:26:27.006Z,9.27
2022-09-28T20:28:58.438Z,9.21
2022-09-28T20:31:28.054Z,9.15
2022-09-28T20:33:57.113Z,9.09
2022-09-28T20:36:26.117Z,9.04
2022-09-28T20:38:57.775Z,9.02
2022-09-28T20:41:27.153Z,8.95
2022-09-28T20:44:01.577Z,8.90
2022-09-28T20:46:37.670Z,8.89
2022-09-28T20:49:07.344Z,8.85
2022-09-28T20:51:36.922Z,8.85
2022-09-28T20:54:05.788Z,8.81
2022-09-28T20:56:38.436Z,8.79
2022-09-28T20:59:11.501Z,8.76
2022-09-28T21:01:40.817Z,8.75
2022-09-28T21:04:11.865Z,8.73
2022-09-28T21:06:41.992Z,8.71
2022-09-28T21:09:12.915Z,8.71
2022-09-28T21:11:41.524Z,8.71
2022-09-28T21:14:13.330Z,8.72
2022-09-28T21:16:41.826Z,8.72
2022-09-28T21:19:13.084Z,8.70
2022-09-28T21:21:42.125Z,8.70
2022-09-28T21:24:12.566Z,8.69
2022-09-28T21:26:41.361Z,8.69
2022-09-28T21:29:13.657Z,8.64
2022-09-28T21:31:45.416Z,8.64
2022-09-28T21:34:18.692Z,8.62
2022-09-28T21:36:50.605Z,8.60
2022-09-28T21:39:20.065Z,8.57
2022-09-28T21:41:49.045Z,8.53
2022-09-28T21:44:17.831Z,8.48
2022-09-28T21:46:46.541Z,8.47
2022-09-28T21:49:15.209Z,8.45
2022-09-28T21:51:46.453Z,8.44
2022-09-28T21:54:15.110Z,8.43
2022-09-28T21:56:43.911Z,8.41
2022-09-28T21:59:14.805Z,8.36
2022-09-28T22:01:43.747Z,8.32
2022-09-28T22:04:13.975Z,8.29
2022-09-28T22:06:45.595Z,8.25
2022-09-28T22:09:14.537Z,8.21
2022-09-28T22:11:43.653Z,8.19
2022-09-28T22:14:14.633Z,8.15
2022-09-28T22:16:43.463Z,8.14
2022-09-28T22:19:13.032Z,8.12
2022-09-28T22:21:42.904Z,8.09
2022-09-28T22:24:12.728Z,8.06
2022-09-28T22:26:41.318Z,8.02
2022-09-28T22:29:13.111Z,7.98
2022-09-28T22:31:41.959Z,7.96
2022-09-28T22:34:12.975Z,7.94
2022-09-28T22:36:41.962Z,7.93
2022-09-28T22:39:11.017Z,7.90
2022-09-28T22:41:41.254Z,7.88
2022-09-28T22:44:10.165Z,7.86
2022-09-28T22:46:40.269Z,7.82
2022-09-28T22:49:12.825Z,7.81
2022-09-28T22:51:41.640Z,7.79
2022-09-28T22:54:16.011Z,7.77
2022-09-28T22:56:45.353Z,7.75
2022-09-28T22:59:14.454Z,7.73
2022-09-28T23:01:43.441Z,7.73
2022-09-28T23:04:13.873Z,7.73
2022-09-28T23:06:42.677Z,7.75
2022-09-28T23:09:12.317Z,7.74
2022-09-28T23:11:41.005Z,7.74
2022-09-28T23:14:12.842Z,7.74
2022-09-28T23:16:41.959Z,7.75
2022-09-28T23:19:11.307Z,7.73
2022-09-28T23:21:43.038Z,7.71
2022-09-28T23:24:13.035Z,7.71
2022-09-28T23:26:41.817Z,7.70
2022-09-28T23:29:12.919Z,7.70
2022-09-28T23:31:42.146Z,7.67
2022-09-28T23:34:11.513Z,7.65
2022-09-28T23:36:40.719Z,7.61
2022-09-28T23:39:12.404Z,7.59
2022-09-28T23:41:41.363Z,7.60
2022-09-28T23:44:10.397Z,7.57
2022-09-28T23:46:39.812Z,7.56
2022-09-28T23:49:08.459Z,7.53
2022-09-28T23:51:37.441Z,7.51
2022-09-28T23:54:07.009Z,7.50
2022-09-28T23:56:35.958Z,7.52
2022-09-28T23:59:04.753Z,7.52
